This is the latest recevied weather packets stored in our database for station/object KB1ZFK. If no packets are shown the sender has not sent any weather packets the latest 1 day(s).
| Time | Temp. | Humidity | Pressure | Rain* | Wind** | Luminosity | Snow |
|---|---|---|---|---|---|---|---|
| 1778099673 | 15.56° C | 95% | 1005.3 hPa | 1.78 mm | - | 39 W/m² | - |
| 1778098763 | 15.56° C | 94% | 1005.4 hPa | 1.27 mm | - | 50 W/m² | - |
| 1778097550 | 15.56° C | 94% | 1005.4 hPa | 0 mm | - | 56 W/m² | - |
| 1778096944 | 15.56° C | 93% | 1005.9 hPa | 1.27 mm | - | 79 W/m² | - |
| 1778096641 | 15.56° C | 93% | 1005.8 hPa | 0 mm | - | 59 W/m² | - |
| 1778096035 | 15.56° C | 93% | 1005.9 hPa | 0 mm | - | 32 W/m² | - |
| 1778095731 | 15.56° C | 92% | 1006.1 hPa | 1.78 mm | - | 27 W/m² | - |
| 1778093003 | 16.11° C | 94% | 1006.4 hPa | 0 mm | - | 84 W/m² | - |
| 1778092093 | 15.56° C | 93% | 1006.5 hPa | 0 mm | - | 56 W/m² | - |
| 1778091790 | 16.11° C | 93% | 1006.6 hPa | 1.27 mm | - | 52 W/m² | - |
| 1778091488 | 16.11° C | 93% | 1007 hPa | 1.27 mm | - | 70 W/m² | - |
| 1778089669 | 16.11° C | 90% | 1007 hPa | 1.27 mm | - | 66 W/m² | - |
| 1778088760 | 17.22° C | 85% | 1007.1 hPa | 0 mm | - | 71 W/m² | - |
| 1778088457 | 17.78° C | 81% | 1007.2 hPa | 0 mm | - | 42 W/m² | - |
| 1778087246 | 19.44° C | 71% | 1006.9 hPa | 0 mm | - | 48 W/m² | - |
| 1778084517 | 20° C | 69% | 1006.8 hPa | 0 mm | - | 81 W/m² | - |
| 1778084214 | 20° C | 72% | 1007.1 hPa | 0 mm | - | 92 W/m² | - |
| 1778083004 | 20° C | 71% | 1007.5 hPa | 0 mm | - | 120 W/m² | - |
| 1778082700 | 19.44° C | 72% | 1008 hPa | 0 mm | - | 84 W/m² | - |
| 1778080957 | 19.44° C | 72% | 1008.1 hPa | 0 mm | - | 108 W/m² | - |
| 1778080656 | 19.44° C | 73% | 1008.3 hPa | 0 mm | - | 108 W/m² | - |
| 1778080352 | 20° C | 72% | 1008.3 hPa | 0 mm | - | 29 W/m² | - |
| 1778080048 | 20° C | 71% | 1008.2 hPa | 0 mm | - | 60 W/m² | - |
| 1778079139 | 20° C | 71% | 1008 hPa | 0 mm | - | 169 W/m² | - |
| 1778078231 | 20° C | 73% | 1008 hPa | 0 mm | - | 161 W/m² | - |
* Rain latest hour (hover to see other rain measurements)
** Current wind speed in m/s (hover to see current wind gust speed)